createdAt,value
2022-10-22T00:03:54.000Z,1.90
2022-10-22T00:23:54.000Z,3.60
2022-10-22T00:33:54.000Z,2.10
2022-10-22T00:43:54.000Z,3.00
2022-10-22T00:53:53.000Z,3.50
2022-10-22T01:03:53.000Z,3.40
2022-10-22T01:13:53.000Z,1.60
2022-10-22T01:23:53.000Z,3.00
2022-10-22T01:33:53.000Z,2.00
2022-10-22T01:53:53.000Z,2.10
2022-10-22T02:03:53.000Z,2.20
2022-10-22T02:13:52.000Z,2.50
2022-10-22T02:23:52.000Z,2.40
2022-10-22T02:33:52.000Z,2.80
2022-10-22T02:43:52.000Z,2.10
2022-10-22T02:53:52.000Z,2.00
2022-10-22T03:03:52.000Z,3.40
2022-10-22T03:23:51.000Z,2.60
2022-10-22T03:33:51.000Z,3.70
2022-10-22T03:43:51.000Z,2.30
2022-10-22T03:53:51.000Z,1.90
2022-10-22T04:03:51.000Z,2.70
2022-10-22T04:13:51.000Z,2.00
2022-10-22T04:23:51.000Z,2.60
2022-10-22T04:33:50.000Z,3.10
2022-10-22T04:53:50.000Z,2.30
2022-10-22T05:03:50.000Z,2.80
2022-10-22T05:13:50.000Z,2.50
2022-10-22T05:23:50.000Z,1.80
2022-10-22T05:33:50.000Z,2.30
2022-10-22T05:43:50.000Z,1.80
2022-10-22T05:53:49.000Z,2.30
2022-10-22T06:03:49.000Z,2.10
2022-10-22T06:23:49.000Z,2.60
2022-10-22T06:33:49.000Z,1.80
2022-10-22T06:43:49.000Z,2.30
2022-10-22T06:53:49.000Z,1.80
2022-10-22T07:03:48.000Z,1.80
2022-10-22T07:13:48.000Z,1.80
2022-10-22T07:23:48.000Z,1.50
2022-10-22T07:33:48.000Z,1.20
2022-10-22T07:53:48.000Z,1.60
2022-10-22T08:03:48.000Z,1.40
2022-10-22T08:13:48.000Z,2.40
2022-10-22T08:23:47.000Z,1.80
2022-10-22T08:33:47.000Z,2.20
2022-10-22T08:43:47.000Z,1.10
2022-10-22T08:53:47.000Z,1.10
2022-10-22T09:03:47.000Z,1.10
2022-10-22T09:23:47.000Z,1.20
2022-10-22T09:33:46.000Z,1.30
2022-10-22T09:43:46.000Z,0.80
2022-10-22T09:53:46.000Z,0.60
2022-10-22T10:03:46.000Z,0.90
2022-10-22T10:13:46.000Z,0.70
2022-10-22T10:23:46.000Z,0.80
2022-10-22T10:33:46.000Z,0.40
2022-10-22T10:53:45.000Z,0.80
2022-10-22T11:03:45.000Z,0.40
2022-10-22T11:13:45.000Z,0.50
2022-10-22T11:23:45.000Z,0.70
2022-10-22T11:23:45.000Z,0.70
2022-10-22T11:33:45.000Z,0.70
2022-10-22T11:43:45.000Z,0.60
2022-10-22T11:53:44.000Z,0.70
2022-10-22T12:03:44.000Z,1.30
2022-10-22T12:23:44.000Z,0.90
2022-10-22T12:33:44.000Z,0.70
2022-10-22T12:43:44.000Z,0.70
2022-10-22T12:53:44.000Z,0.40
2022-10-22T13:03:44.000Z,0.40
2022-10-22T13:13:43.000Z,0.50
2022-10-22T13:23:43.000Z,0.80
2022-10-22T13:33:43.000Z,0.60
2022-10-22T13:53:43.000Z,0.80
2022-10-22T14:03:43.000Z,0.70
2022-10-22T14:13:43.000Z,0.70
2022-10-22T14:23:42.000Z,0.90
2022-10-22T14:33:42.000Z,0.80
2022-10-22T14:43:42.000Z,1.00
2022-10-22T14:53:42.000Z,1.20
2022-10-22T15:03:42.000Z,0.90
2022-10-22T15:23:42.000Z,0.90
2022-10-22T15:33:41.000Z,1.10
2022-10-22T15:43:41.000Z,1.30
2022-10-22T15:53:41.000Z,1.10
2022-10-22T16:03:41.000Z,1.10
2022-10-22T16:13:41.000Z,1.40
2022-10-22T16:23:41.000Z,1.10
2022-10-22T16:33:41.000Z,1.40
2022-10-22T16:53:40.000Z,1.40
2022-10-22T17:03:40.000Z,1.70
2022-10-22T17:13:40.000Z,2.50
2022-10-22T17:23:40.000Z,2.20
2022-10-22T17:33:40.000Z,2.60
2022-10-22T17:43:40.000Z,2.30
2022-10-22T17:53:40.000Z,3.20
2022-10-22T18:03:39.000Z,1.80
2022-10-22T18:23:39.000Z,2.40
2022-10-22T18:33:39.000Z,2.90
2022-10-22T18:43:39.000Z,1.90
2022-10-22T18:43:39.000Z,1.90
2022-10-22T18:53:39.000Z,1.70
2022-10-22T19:03:39.000Z,2.20
2022-10-22T19:13:38.000Z,2.60
2022-10-22T19:23:38.000Z,2.00
2022-10-22T19:33:38.000Z,2.30
2022-10-22T19:53:38.000Z,1.40
2022-10-22T20:03:38.000Z,1.40
2022-10-22T20:03:38.000Z,1.40
2022-10-22T20:13:38.000Z,1.60
2022-10-22T20:23:38.000Z,2.00
2022-10-22T20:33:37.000Z,1.40
2022-10-22T20:43:37.000Z,1.80
2022-10-22T20:53:37.000Z,1.70
2022-10-22T21:03:37.000Z,2.60
2022-10-22T21:23:37.000Z,2.00
2022-10-22T21:33:37.000Z,2.10
2022-10-22T21:43:36.000Z,1.20
2022-10-22T21:53:36.000Z,1.80
2022-10-22T22:03:36.000Z,1.80
2022-10-22T22:13:36.000Z,3.00
2022-10-22T22:23:36.000Z,1.80
2022-10-22T22:33:36.000Z,2.30
2022-10-22T22:53:36.000Z,3.70
2022-10-22T23:03:35.000Z,2.00
2022-10-22T23:13:35.000Z,2.20
2022-10-22T23:23:35.000Z,2.50
2022-10-22T23:33:35.000Z,1.90
2022-10-22T23:43:35.000Z,2.90
2022-10-22T23:53:35.000Z,3.00
